Airfield :
LOGIN :

Register | Disclaimer

   EN    FR    IT 

 










Legend :    VFR   Marginal VFR   IFR   Intensive IFR   Very Intensive IFR
Visi :
Ceiling :
>= 8 km
>= 3000ft
5 to 8 km
1000 to 3000 ft
1500m to 5 km
500 to 1000 ft
800 to 1500m
200 to 500 ft
< 800m
< 200 ft
Symbols :   Thunderstorms  Fog  Heavy snow  Heavy precipitations  Wind > 20 kt
SIGMETs :     Misc.  Thunderstorms  Icing  Turbulence  Mountain Waves  Volcanic Ashes







- Airport Elevation : 14 ft
- IATA code : BRE


EDDW - Bremen Neuenland

CURRENT METAR :
  • 262050Z 23005KT 9999 FEW040 16/14 Q1006 NOSIG

EXPIRED METARs :
  • 262020Z 22006KT 9999 FEW020 16/14 Q1007 NOSIG
  • 261950Z 21007KT 9999 FEW018 17/14 Q1007 NOSIG
  • 261920Z 22006KT 9999 FEW015 16/14 Q1007 NOSIG
  • 261850Z 21008KT 9999 FEW015 16/14 Q1007 NOSIG
  • 261820Z 25008KT 210V270 9999 -RA FEW015 OVC040 16/15 Q1008 NOSIG
  • 261750Z 29010KT 9999 -RA FEW015 OVC035 16/15 Q1008 NOSIG

TAF TAF EDDW
Valid from the 26 at 18:00 until the 27 at 18:00 UTC


261700Z 2618/2718 23012KT 9999 SCT020 BKN030
PROB30
TEMPO 2618/2621 24015G25KT 4500 RA BKN014
BECMG 2621/2623 22007KT BKN012
TEMPO 2621/2702 3500 RA BKN007
BECMG 2702/2704 28010KT SCT012 BKN020
PROB30
TEMPO 2705/2707 BKN012
TEMPO 2709/2715 29015G25KT
No reported NOTAMs for that airfield.



MET'MAP, your aeronautical weather chart ! - Copyright ORBIFLY December 2007 - Disclaimer

ORBIFLY MET'MAP TEAM :

Programming & Development : Alexandra Zaïnal
Concept & Development : Baudouin d'Aumeries
Co-Development & Prog : Marc-Olivier Méhu
Technical & hardware support : Manuel Goepfert

Contact : metmap@orbifly.com




SOURCES & CREDITS :

   NOAA